Terminal Aerodrome Forecast
Issued by NWS

Home | Current Version | Previous Version | Text Only | Print | Product List | Glossary On
Versions: 1 2 3 4 5 6 7 8 9 10 11 12 13 14
800
FTUS46 KSEW 222330
TAFCLM
TAF
KCLM 222330Z 2300/2324 31013G20KT P6SM SKC
     FM230900 29006KT P6SM OVC011
     FM231900 31006KT P6SM SCT035 BKN250=

USA.gov is the U.S. government's official web portal to all federal, state and local government web resources and services.